sensor_id;sensor_type;location;lat;lon;timestamp;temperature;humidity
20610;DHT22;10463;52.378;9.688;2024-03-02T00:01:39;23.50;23.80
20610;DHT22;10463;52.378;9.688;2024-03-02T00:04:24;23.50;23.80
20610;DHT22;10463;52.378;9.688;2024-03-02T00:07:09;23.50;23.80
20610;DHT22;10463;52.378;9.688;2024-03-02T00:09:55;23.50;23.80
20610;DHT22;10463;52.378;9.688;2024-03-02T00:12:41;23.50;23.80
20610;DHT22;10463;52.378;9.688;2024-03-02T00:15:42;23.50;23.80
20610;DHT22;10463;52.378;9.688;2024-03-02T00:18:32;23.50;23.80
20610;DHT22;10463;52.378;9.688;2024-03-02T00:21:17;23.50;23.80
20610;DHT22;10463;52.378;9.688;2024-03-02T00:24:17;23.50;23.80
20610;DHT22;10463;52.378;9.688;2024-03-02T00:27:04;23.50;23.80
20610;DHT22;10463;52.378;9.688;2024-03-02T00:29:51;23.50;23.80
20610;DHT22;10463;52.378;9.688;2024-03-02T00:32:36;23.50;23.80
20610;DHT22;10463;52.378;9.688;2024-03-02T00:35:20;23.50;23.80
20610;DHT22;10463;52.378;9.688;2024-03-02T00:38:06;23.50;23.80
20610;DHT22;10463;52.378;9.688;2024-03-02T00:40:51;23.50;23.80
20610;DHT22;10463;52.378;9.688;2024-03-02T00:43:45;23.50;23.80
20610;DHT22;10463;52.378;9.688;2024-03-02T00:46:34;23.50;23.90
20610;DHT22;10463;52.378;9.688;2024-03-02T00:49:23;23.50;23.80
20610;DHT22;10463;52.378;9.688;2024-03-02T00:52:08;23.50;23.90
20610;DHT22;10463;52.378;9.688;2024-03-02T00:54:53;23.50;23.90
20610;DHT22;10463;52.378;9.688;2024-03-02T00:57:41;23.50;23.90
20610;DHT22;10463;52.378;9.688;2024-03-02T01:00:26;23.40;23.80
20610;DHT22;10463;52.378;9.688;2024-03-02T01:03:12;23.40;23.80
20610;DHT22;10463;52.378;9.688;2024-03-02T01:05:57;23.40;23.80
20610;DHT22;10463;52.378;9.688;2024-03-02T01:08:42;23.40;23.80
20610;DHT22;10463;52.378;9.688;2024-03-02T01:11:27;23.40;23.80
20610;DHT22;10463;52.378;9.688;2024-03-02T01:14:12;23.40;23.80
20610;DHT22;10463;52.378;9.688;2024-03-02T01:16:56;23.50;23.90
20610;DHT22;10463;52.378;9.688;2024-03-02T01:19:43;23.40;23.80
20610;DHT22;10463;52.378;9.688;2024-03-02T01:22:28;23.40;23.80
20610;DHT22;10463;52.378;9.688;2024-03-02T01:25:13;23.40;23.80
20610;DHT22;10463;52.378;9.688;2024-03-02T01:27:58;23.40;23.80
20610;DHT22;10463;52.378;9.688;2024-03-02T01:30:43;23.40;23.80
20610;DHT22;10463;52.378;9.688;2024-03-02T01:33:28;23.40;23.80
20610;DHT22;10463;52.378;9.688;2024-03-02T01:36:14;23.40;23.80
20610;DHT22;10463;52.378;9.688;2024-03-02T01:38:58;23.40;23.80
20610;DHT22;10463;52.378;9.688;2024-03-02T01:41:43;23.40;23.80
20610;DHT22;10463;52.378;9.688;2024-03-02T01:44:27;23.40;23.80
20610;DHT22;10463;52.378;9.688;2024-03-02T01:47:12;23.40;23.90
20610;DHT22;10463;52.378;9.688;2024-03-02T01:49:56;23.40;24.40
20610;DHT22;10463;52.378;9.688;2024-03-02T01:52:43;23.40;23.90
20610;DHT22;10463;52.378;9.688;2024-03-02T01:55:28;23.40;23.90
20610;DHT22;10463;52.378;9.688;2024-03-02T01:58:14;23.40;23.90
20610;DHT22;10463;52.378;9.688;2024-03-02T02:00:59;23.40;23.90
20610;DHT22;10463;52.378;9.688;2024-03-02T02:03:44;23.40;23.90
20610;DHT22;10463;52.378;9.688;2024-03-02T02:06:29;23.40;23.80
20610;DHT22;10463;52.378;9.688;2024-03-02T02:09:15;23.40;23.80
20610;DHT22;10463;52.378;9.688;2024-03-02T02:12:00;23.40;23.90
20610;DHT22;10463;52.378;9.688;2024-03-02T02:14:47;23.40;23.80
20610;DHT22;10463;52.378;9.688;2024-03-02T02:17:33;23.40;23.80
20610;DHT22;10463;52.378;9.688;2024-03-02T02:20:17;23.40;23.80
20610;DHT22;10463;52.378;9.688;2024-03-02T02:23:05;23.40;23.90
20610;DHT22;10463;52.378;9.688;2024-03-02T02:25:50;23.40;23.80
20610;DHT22;10463;52.378;9.688;2024-03-02T02:28:35;23.40;23.90
20610;DHT22;10463;52.378;9.688;2024-03-02T02:31:19;23.40;23.90
20610;DHT22;10463;52.378;9.688;2024-03-02T02:34:04;23.40;23.90
20610;DHT22;10463;52.378;9.688;2024-03-02T02:36:48;23.40;24.40
20610;DHT22;10463;52.378;9.688;2024-03-02T02:39:34;23.40;23.80
20610;DHT22;10463;52.378;9.688;2024-03-02T02:42:19;23.40;23.80
20610;DHT22;10463;52.378;9.688;2024-03-02T02:45:04;23.40;23.80
20610;DHT22;10463;52.378;9.688;2024-03-02T02:47:49;23.40;23.80
20610;DHT22;10463;52.378;9.688;2024-03-02T02:50:34;23.40;23.90
20610;DHT22;10463;52.378;9.688;2024-03-02T02:53:19;23.40;23.80
20610;DHT22;10463;52.378;9.688;2024-03-02T02:56:05;23.40;23.80
20610;DHT22;10463;52.378;9.688;2024-03-02T02:58:50;23.40;23.80
20610;DHT22;10463;52.378;9.688;2024-03-02T03:01:34;23.40;23.80
20610;DHT22;10463;52.378;9.688;2024-03-02T03:04:19;23.40;23.80
20610;DHT22;10463;52.378;9.688;2024-03-02T03:07:04;23.40;23.80
20610;DHT22;10463;52.378;9.688;2024-03-02T03:09:49;23.40;23.80
20610;DHT22;10463;52.378;9.688;2024-03-02T03:12:36;23.40;23.80
20610;DHT22;10463;52.378;9.688;2024-03-02T03:15:20;23.40;23.80
20610;DHT22;10463;52.378;9.688;2024-03-02T03:18:05;23.40;23.80
20610;DHT22;10463;52.378;9.688;2024-03-02T03:20:50;23.30;23.70
20610;DHT22;10463;52.378;9.688;2024-03-02T03:23:35;23.30;23.70
20610;DHT22;10463;52.378;9.688;2024-03-02T03:26:19;23.30;23.80
20610;DHT22;10463;52.378;9.688;2024-03-02T03:29:05;23.40;23.80
20610;DHT22;10463;52.378;9.688;2024-03-02T03:31:51;23.30;23.70
20610;DHT22;10463;52.378;9.688;2024-03-02T03:34:35;23.30;23.80
20610;DHT22;10463;52.378;9.688;2024-03-02T03:37:20;23.30;23.80
20610;DHT22;10463;52.378;9.688;2024-03-02T03:40:06;23.30;24.30
20610;DHT22;10463;52.378;9.688;2024-03-02T03:42:54;23.30;23.80
20610;DHT22;10463;52.378;9.688;2024-03-02T03:45:42;23.30;23.80
20610;DHT22;10463;52.378;9.688;2024-03-02T03:48:26;23.30;23.80
20610;DHT22;10463;52.378;9.688;2024-03-02T03:51:14;23.30;23.80
20610;DHT22;10463;52.378;9.688;2024-03-02T03:53:59;23.30;23.80
20610;DHT22;10463;52.378;9.688;2024-03-02T03:56:44;23.30;23.80
20610;DHT22;10463;52.378;9.688;2024-03-02T03:59:29;23.30;23.80
20610;DHT22;10463;52.378;9.688;2024-03-02T04:02:15;23.30;23.80
20610;DHT22;10463;52.378;9.688;2024-03-02T04:05:00;23.30;23.80
20610;DHT22;10463;52.378;9.688;2024-03-02T04:07:44;23.30;23.80
20610;DHT22;10463;52.378;9.688;2024-03-02T04:10:29;23.30;23.80
20610;DHT22;10463;52.378;9.688;2024-03-02T04:13:14;23.30;23.80
20610;DHT22;10463;52.378;9.688;2024-03-02T04:15:59;23.30;23.80
20610;DHT22;10463;52.378;9.688;2024-03-02T04:18:45;23.30;23.80
20610;DHT22;10463;52.378;9.688;2024-03-02T04:21:30;23.30;23.80
20610;DHT22;10463;52.378;9.688;2024-03-02T04:24:15;23.30;23.80
20610;DHT22;10463;52.378;9.688;2024-03-02T04:26:59;23.30;23.90
20610;DHT22;10463;52.378;9.688;2024-03-02T04:29:44;23.30;23.90
20610;DHT22;10463;52.378;9.688;2024-03-02T04:32:28;23.30;23.90
20610;DHT22;10463;52.378;9.688;2024-03-02T04:35:14;23.30;23.80
20610;DHT22;10463;52.378;9.688;2024-03-02T04:37:59;23.20;23.80
20610;DHT22;10463;52.378;9.688;2024-03-02T04:40:44;23.30;23.80
20610;DHT22;10463;52.378;9.688;2024-03-02T04:43:28;23.30;23.80
20610;DHT22;10463;52.378;9.688;2024-03-02T04:46:13;23.20;23.80
20610;DHT22;10463;52.378;9.688;2024-03-02T04:48:57;23.20;23.80
20610;DHT22;10463;52.378;9.688;2024-03-02T04:51:43;23.20;23.80
20610;DHT22;10463;52.378;9.688;2024-03-02T04:54:28;23.20;24.30
20610;DHT22;10463;52.378;9.688;2024-03-02T04:57:12;23.20;23.80
20610;DHT22;10463;52.378;9.688;2024-03-02T04:59:57;23.20;23.80
20610;DHT22;10463;52.378;9.688;2024-03-02T05:02:41;23.20;23.80
20610;DHT22;10463;52.378;9.688;2024-03-02T05:05:26;23.20;23.80
20610;DHT22;10463;52.378;9.688;2024-03-02T05:08:12;23.20;23.80
20610;DHT22;10463;52.378;9.688;2024-03-02T05:10:57;23.20;23.80
20610;DHT22;10463;52.378;9.688;2024-03-02T05:14:01;23.20;23.80
20610;DHT22;10463;52.378;9.688;2024-03-02T05:16:46;23.20;23.80
20610;DHT22;10463;52.378;9.688;2024-03-02T05:19:30;23.20;23.90
20610;DHT22;10463;52.378;9.688;2024-03-02T05:22:15;23.20;23.90
20610;DHT22;10463;52.378;9.688;2024-03-02T05:25:02;23.20;23.90
20610;DHT22;10463;52.378;9.688;2024-03-02T05:27:47;23.20;23.90
20610;DHT22;10463;52.378;9.688;2024-03-02T05:30:32;23.20;23.90
20610;DHT22;10463;52.378;9.688;2024-03-02T05:33:16;23.20;23.90
20610;DHT22;10463;52.378;9.688;2024-03-02T05:36:01;23.20;23.90
20610;DHT22;10463;52.378;9.688;2024-03-02T05:38:46;23.20;23.90
20610;DHT22;10463;52.378;9.688;2024-03-02T05:41:32;23.20;23.90
20610;DHT22;10463;52.378;9.688;2024-03-02T05:44:17;23.20;23.90
20610;DHT22;10463;52.378;9.688;2024-03-02T05:47:03;23.20;23.90
20610;DHT22;10463;52.378;9.688;2024-03-02T05:49:48;23.20;23.90
20610;DHT22;10463;52.378;9.688;2024-03-02T05:52:32;23.20;24.00
20610;DHT22;10463;52.378;9.688;2024-03-02T05:55:17;23.20;23.90
20610;DHT22;10463;52.378;9.688;2024-03-02T05:58:03;23.20;24.00
20610;DHT22;10463;52.378;9.688;2024-03-02T06:00:51;23.20;24.00
20610;DHT22;10463;52.378;9.688;2024-03-02T06:03:35;23.10;23.90
20610;DHT22;10463;52.378;9.688;2024-03-02T06:06:20;23.10;23.90
20610;DHT22;10463;52.378;9.688;2024-03-02T06:09:06;23.20;24.00
20610;DHT22;10463;52.378;9.688;2024-03-02T06:11:52;23.10;23.90
20610;DHT22;10463;52.378;9.688;2024-03-02T06:14:37;23.10;23.90
20610;DHT22;10463;52.378;9.688;2024-03-02T06:17:22;23.10;23.90
20610;DHT22;10463;52.378;9.688;2024-03-02T06:20:08;23.10;23.90
20610;DHT22;10463;52.378;9.688;2024-03-02T06:22:52;23.10;23.90
20610;DHT22;10463;52.378;9.688;2024-03-02T06:25:37;23.10;23.90
20610;DHT22;10463;52.378;9.688;2024-03-02T06:28:22;23.10;23.90
20610;DHT22;10463;52.378;9.688;2024-03-02T06:31:08;23.10;23.90
20610;DHT22;10463;52.378;9.688;2024-03-02T06:33:52;23.10;23.90
20610;DHT22;10463;52.378;9.688;2024-03-02T06:36:38;23.10;23.90
20610;DHT22;10463;52.378;9.688;2024-03-02T06:39:24;23.10;23.90
20610;DHT22;10463;52.378;9.688;2024-03-02T06:42:10;23.10;23.90
20610;DHT22;10463;52.378;9.688;2024-03-02T06:44:54;23.10;23.90
20610;DHT22;10463;52.378;9.688;2024-03-02T06:47:41;23.10;23.90
20610;DHT22;10463;52.378;9.688;2024-03-02T06:50:26;23.10;24.00
20610;DHT22;10463;52.378;9.688;2024-03-02T06:53:11;23.10;23.90
20610;DHT22;10463;52.378;9.688;2024-03-02T06:55:56;23.10;23.90
20610;DHT22;10463;52.378;9.688;2024-03-02T06:58:40;23.10;24.00
20610;DHT22;10463;52.378;9.688;2024-03-02T07:01:25;23.10;24.00
20610;DHT22;10463;52.378;9.688;2024-03-02T07:04:12;23.10;24.00
20610;DHT22;10463;52.378;9.688;2024-03-02T07:06:56;23.10;24.00
20610;DHT22;10463;52.378;9.688;2024-03-02T07:09:41;23.10;24.00
20610;DHT22;10463;52.378;9.688;2024-03-02T07:12:25;23.10;24.00
20610;DHT22;10463;52.378;9.688;2024-03-02T07:15:10;23.10;24.00
20610;DHT22;10463;52.378;9.688;2024-03-02T07:18:09;23.10;24.00
20610;DHT22;10463;52.378;9.688;2024-03-02T07:20:55;23.10;23.90
20610;DHT22;10463;52.378;9.688;2024-03-02T07:23:42;23.10;24.00
20610;DHT22;10463;52.378;9.688;2024-03-02T07:26:27;23.10;24.00
20610;DHT22;10463;52.378;9.688;2024-03-02T07:29:11;23.10;23.90
20610;DHT22;10463;52.378;9.688;2024-03-02T07:31:57;23.10;24.00
20610;DHT22;10463;52.378;9.688;2024-03-02T07:34:41;23.00;23.90
20610;DHT22;10463;52.378;9.688;2024-03-02T07:37:27;23.10;24.00
20610;DHT22;10463;52.378;9.688;2024-03-02T07:40:12;23.10;23.90
20610;DHT22;10463;52.378;9.688;2024-03-02T07:42:57;23.10;23.90
20610;DHT22;10463;52.378;9.688;2024-03-02T07:45:43;23.10;23.90
20610;DHT22;10463;52.378;9.688;2024-03-02T07:48:27;23.00;23.90
20610;DHT22;10463;52.378;9.688;2024-03-02T07:51:12;23.10;23.90
20610;DHT22;10463;52.378;9.688;2024-03-02T07:53:59;23.10;23.90
20610;DHT22;10463;52.378;9.688;2024-03-02T07:56:45;23.10;23.90
20610;DHT22;10463;52.378;9.688;2024-03-02T07:59:29;23.10;23.90
20610;DHT22;10463;52.378;9.688;2024-03-02T08:02:14;23.10;23.90
20610;DHT22;10463;52.378;9.688;2024-03-02T08:04:59;23.10;23.90
20610;DHT22;10463;52.378;9.688;2024-03-02T08:07:44;23.10;23.90
20610;DHT22;10463;52.378;9.688;2024-03-02T08:10:30;23.10;24.00
20610;DHT22;10463;52.378;9.688;2024-03-02T08:13:15;23.10;24.00
20610;DHT22;10463;52.378;9.688;2024-03-02T08:16:00;23.10;24.00
20610;DHT22;10463;52.378;9.688;2024-03-02T08:18:45;23.10;24.00
20610;DHT22;10463;52.378;9.688;2024-03-02T08:21:29;23.10;24.00
20610;DHT22;10463;52.378;9.688;2024-03-02T08:24:14;23.10;24.00
20610;DHT22;10463;52.378;9.688;2024-03-02T08:27:01;23.10;24.00
20610;DHT22;10463;52.378;9.688;2024-03-02T08:29:46;23.10;24.00
20610;DHT22;10463;52.378;9.688;2024-03-02T08:32:30;23.10;24.00
20610;DHT22;10463;52.378;9.688;2024-03-02T08:35:15;23.10;24.00
20610;DHT22;10463;52.378;9.688;2024-03-02T08:37:59;23.10;24.00
20610;DHT22;10463;52.378;9.688;2024-03-02T08:40:45;23.10;24.00
20610;DHT22;10463;52.378;9.688;2024-03-02T08:43:32;23.10;24.10
20610;DHT22;10463;52.378;9.688;2024-03-02T08:46:16;23.10;24.10
20610;DHT22;10463;52.378;9.688;2024-03-02T08:49:01;23.10;24.00
20610;DHT22;10463;52.378;9.688;2024-03-02T08:51:46;23.10;24.10
20610;DHT22;10463;52.378;9.688;2024-03-02T08:54:38;23.20;24.20
20610;DHT22;10463;52.378;9.688;2024-03-02T08:57:23;23.20;24.20
20610;DHT22;10463;52.378;9.688;2024-03-02T09:00:10;23.20;24.20
20610;DHT22;10463;52.378;9.688;2024-03-02T09:02:55;23.20;24.20
20610;DHT22;10463;52.378;9.688;2024-03-02T09:05:40;23.20;24.20
20610;DHT22;10463;52.378;9.688;2024-03-02T09:08:25;23.20;24.20
20610;DHT22;10463;52.378;9.688;2024-03-02T09:11:10;23.20;24.20
20610;DHT22;10463;52.378;9.688;2024-03-02T09:13:55;23.20;24.70
20610;DHT22;10463;52.378;9.688;2024-03-02T09:16:42;23.20;24.20
20610;DHT22;10463;52.378;9.688;2024-03-02T09:19:27;23.20;24.20
20610;DHT22;10463;52.378;9.688;2024-03-02T09:22:11;23.20;24.20
20610;DHT22;10463;52.378;9.688;2024-03-02T09:24:56;23.20;24.20
20610;DHT22;10463;52.378;9.688;2024-03-02T09:27:40;23.20;24.20
20610;DHT22;10463;52.378;9.688;2024-03-02T09:30:25;23.20;24.20
20610;DHT22;10463;52.378;9.688;2024-03-02T09:33:11;23.20;24.10
20610;DHT22;10463;52.378;9.688;2024-03-02T09:35:55;23.20;24.10
20610;DHT22;10463;52.378;9.688;2024-03-02T09:38:40;23.20;24.10
20610;DHT22;10463;52.378;9.688;2024-03-02T09:41:25;23.20;24.10
20610;DHT22;10463;52.378;9.688;2024-03-02T09:44:09;23.30;24.20
20610;DHT22;10463;52.378;9.688;2024-03-02T09:46:54;23.30;24.20
20610;DHT22;10463;52.378;9.688;2024-03-02T09:49:40;23.20;24.10
20610;DHT22;10463;52.378;9.688;2024-03-02T09:52:25;23.30;24.20
20610;DHT22;10463;52.378;9.688;2024-03-02T09:55:11;23.30;24.20
20610;DHT22;10463;52.378;9.688;2024-03-02T09:57:56;23.30;24.20
20610;DHT22;10463;52.378;9.688;2024-03-02T10:00:41;23.30;24.20
20610;DHT22;10463;52.378;9.688;2024-03-02T10:03:26;23.30;24.20
20610;DHT22;10463;52.378;9.688;2024-03-02T10:06:22;23.30;24.20
20610;DHT22;10463;52.378;9.688;2024-03-02T10:09:07;23.30;24.20
20610;DHT22;10463;52.378;9.688;2024-03-02T10:11:51;23.30;24.20
20610;DHT22;10463;52.378;9.688;2024-03-02T10:14:36;23.30;24.20
20610;DHT22;10463;52.378;9.688;2024-03-02T10:17:20;23.30;24.20
20610;DHT22;10463;52.378;9.688;2024-03-02T10:20:22;23.30;24.20
20610;DHT22;10463;52.378;9.688;2024-03-02T10:23:13;23.30;24.20
20610;DHT22;10463;52.378;9.688;2024-03-02T10:25:59;23.30;24.20
20610;DHT22;10463;52.378;9.688;2024-03-02T10:28:46;23.30;24.20
20610;DHT22;10463;52.378;9.688;2024-03-02T10:31:37;23.30;24.30
20610;DHT22;10463;52.378;9.688;2024-03-02T10:34:22;23.30;24.20
20610;DHT22;10463;52.378;9.688;2024-03-02T10:37:07;23.40;24.30
20610;DHT22;10463;52.378;9.688;2024-03-02T10:39:53;23.30;24.30
20610;DHT22;10463;52.378;9.688;2024-03-02T10:42:39;23.40;24.30
20610;DHT22;10463;52.378;9.688;2024-03-02T10:45:24;23.40;24.30
20610;DHT22;10463;52.378;9.688;2024-03-02T10:48:09;23.40;24.30
20610;DHT22;10463;52.378;9.688;2024-03-02T10:50:54;23.40;24.30
20610;DHT22;10463;52.378;9.688;2024-03-02T10:53:39;23.40;24.40
20610;DHT22;10463;52.378;9.688;2024-03-02T10:56:28;23.40;24.40
20610;DHT22;10463;52.378;9.688;2024-03-02T10:59:28;23.40;24.40
20610;DHT22;10463;52.378;9.688;2024-03-02T11:02:16;23.40;24.40
20610;DHT22;10463;52.378;9.688;2024-03-02T11:05:05;23.40;24.40
20610;DHT22;10463;52.378;9.688;2024-03-02T11:07:53;23.40;24.40
20610;DHT22;10463;52.378;9.688;2024-03-02T11:10:48;23.50;24.40
20610;DHT22;10463;52.378;9.688;2024-03-02T11:13:37;23.50;24.40
20610;DHT22;10463;52.378;9.688;2024-03-02T11:16:31;23.50;24.40
20610;DHT22;10463;52.378;9.688;2024-03-02T11:19:19;23.50;24.40
20610;DHT22;10463;52.378;9.688;2024-03-02T11:22:05;23.50;24.50
20610;DHT22;10463;52.378;9.688;2024-03-02T11:24:51;23.50;24.40
20610;DHT22;10463;52.378;9.688;2024-03-02T11:28:03;23.50;24.40
20610;DHT22;10463;52.378;9.688;2024-03-02T11:30:55;23.50;24.40
20610;DHT22;10463;52.378;9.688;2024-03-02T11:33:40;23.50;24.40
20610;DHT22;10463;52.378;9.688;2024-03-02T11:36:25;23.60;24.50
20610;DHT22;10463;52.378;9.688;2024-03-02T11:39:10;23.60;24.50
20610;DHT22;10463;52.378;9.688;2024-03-02T11:41:55;23.60;24.50
20610;DHT22;10463;52.378;9.688;2024-03-02T11:44:42;23.60;24.50
20610;DHT22;10463;52.378;9.688;2024-03-02T11:47:31;23.60;24.50
20610;DHT22;10463;52.378;9.688;2024-03-02T11:50:28;23.60;24.40
20610;DHT22;10463;52.378;9.688;2024-03-02T11:53:13;23.60;24.50
20610;DHT22;10463;52.378;9.688;2024-03-02T11:55:58;23.60;24.40
20610;DHT22;10463;52.378;9.688;2024-03-02T11:58:43;23.60;24.40
20610;DHT22;10463;52.378;9.688;2024-03-02T12:01:29;23.60;24.40
20610;DHT22;10463;52.378;9.688;2024-03-02T12:04:15;23.60;24.40
20610;DHT22;10463;52.378;9.688;2024-03-02T12:07:01;23.60;24.40
20610;DHT22;10463;52.378;9.688;2024-03-02T12:09:47;23.70;24.50
20610;DHT22;10463;52.378;9.688;2024-03-02T12:12:31;23.70;24.80
20610;DHT22;10463;52.378;9.688;2024-03-02T12:15:16;23.70;24.50
20610;DHT22;10463;52.378;9.688;2024-03-02T12:18:02;23.70;24.50
20610;DHT22;10463;52.378;9.688;2024-03-02T12:20:49;23.70;24.50
20610;DHT22;10463;52.378;9.688;2024-03-02T12:23:36;23.70;24.50
20610;DHT22;10463;52.378;9.688;2024-03-02T12:26:22;23.70;24.50
20610;DHT22;10463;52.378;9.688;2024-03-02T12:29:06;23.70;24.50
20610;DHT22;10463;52.378;9.688;2024-03-02T12:31:52;23.70;24.50
20610;DHT22;10463;52.378;9.688;2024-03-02T12:34:38;23.80;24.50
20610;DHT22;10463;52.378;9.688;2024-03-02T12:37:24;23.80;24.50
20610;DHT22;10463;52.378;9.688;2024-03-02T12:40:10;23.80;24.60
20610;DHT22;10463;52.378;9.688;2024-03-02T12:42:56;23.80;24.60
20610;DHT22;10463;52.378;9.688;2024-03-02T12:45:40;23.80;24.80
20610;DHT22;10463;52.378;9.688;2024-03-02T12:48:25;23.80;24.90
20610;DHT22;10463;52.378;9.688;2024-03-02T12:51:10;23.90;25.00
20610;DHT22;10463;52.378;9.688;2024-03-02T12:53:57;23.90;25.10
20610;DHT22;10463;52.378;9.688;2024-03-02T12:56:41;23.90;25.20
20610;DHT22;10463;52.378;9.688;2024-03-02T12:59:30;24.00;25.20
20610;DHT22;10463;52.378;9.688;2024-03-02T13:02:17;24.00;25.20
20610;DHT22;10463;52.378;9.688;2024-03-02T13:05:03;24.10;25.80
20610;DHT22;10463;52.378;9.688;2024-03-02T13:07:50;24.10;25.30
20610;DHT22;10463;52.378;9.688;2024-03-02T13:10:36;24.20;25.80
20610;DHT22;10463;52.378;9.688;2024-03-02T13:13:22;24.20;25.30
20610;DHT22;10463;52.378;9.688;2024-03-02T13:16:11;24.20;25.30
20610;DHT22;10463;52.378;9.688;2024-03-02T13:18:56;24.30;25.30
20610;DHT22;10463;52.378;9.688;2024-03-02T13:21:41;24.40;25.30
20610;DHT22;10463;52.378;9.688;2024-03-02T13:24:27;24.40;25.30
20610;DHT22;10463;52.378;9.688;2024-03-02T13:27:15;24.50;25.30
20610;DHT22;10463;52.378;9.688;2024-03-02T13:30:01;24.60;25.40
20610;DHT22;10463;52.378;9.688;2024-03-02T13:32:47;24.60;25.30
20610;DHT22;10463;52.378;9.688;2024-03-02T13:35:32;24.70;25.30
20610;DHT22;10463;52.378;9.688;2024-03-02T13:38:17;24.70;25.20
20610;DHT22;10463;52.378;9.688;2024-03-02T13:41:02;24.80;25.20
20610;DHT22;10463;52.378;9.688;2024-03-02T13:43:48;24.80;25.10
20610;DHT22;10463;52.378;9.688;2024-03-02T13:46:33;24.90;25.10
20610;DHT22;10463;52.378;9.688;2024-03-02T13:49:18;25.00;25.20
20610;DHT22;10463;52.378;9.688;2024-03-02T13:52:03;25.00;25.10
20610;DHT22;10463;52.378;9.688;2024-03-02T13:54:54;25.00;25.00
20610;DHT22;10463;52.378;9.688;2024-03-02T13:57:39;25.10;25.00
20610;DHT22;10463;52.378;9.688;2024-03-02T14:00:25;25.20;25.00
20610;DHT22;10463;52.378;9.688;2024-03-02T14:03:09;25.20;25.00
20610;DHT22;10463;52.378;9.688;2024-03-02T14:05:54;25.20;24.90
20610;DHT22;10463;52.378;9.688;2024-03-02T14:08:39;25.30;24.90
20610;DHT22;10463;52.378;9.688;2024-03-02T14:11:24;25.40;24.90
20610;DHT22;10463;52.378;9.688;2024-03-02T14:14:08;25.40;24.80
20610;DHT22;10463;52.378;9.688;2024-03-02T14:16:54;25.40;25.30
20610;DHT22;10463;52.378;9.688;2024-03-02T14:19:49;25.40;24.80
20610;DHT22;10463;52.378;9.688;2024-03-02T14:22:35;25.50;24.80
20610;DHT22;10463;52.378;9.688;2024-03-02T14:25:21;25.50;24.80
20610;DHT22;10463;52.378;9.688;2024-03-02T14:28:06;25.50;24.80
20610;DHT22;10463;52.378;9.688;2024-03-02T14:30:51;25.50;24.70
20610;DHT22;10463;52.378;9.688;2024-03-02T14:33:36;25.60;24.80
20610;DHT22;10463;52.378;9.688;2024-03-02T14:36:21;25.60;24.80
20610;DHT22;10463;52.378;9.688;2024-03-02T14:39:05;25.60;24.80
20610;DHT22;10463;52.378;9.688;2024-03-02T14:41:54;25.70;24.80
20610;DHT22;10463;52.378;9.688;2024-03-02T14:44:39;25.70;24.80
20610;DHT22;10463;52.378;9.688;2024-03-02T14:47:24;25.70;24.80
20610;DHT22;10463;52.378;9.688;2024-03-02T14:50:11;25.80;24.80
20610;DHT22;10463;52.378;9.688;2024-03-02T14:52:56;25.80;24.80
20610;DHT22;10463;52.378;9.688;2024-03-02T14:55:44;25.80;24.70
20610;DHT22;10463;52.378;9.688;2024-03-02T14:58:28;25.90;24.70
20610;DHT22;10463;52.378;9.688;2024-03-02T15:01:13;25.90;24.70
20610;DHT22;10463;52.378;9.688;2024-03-02T15:03:58;25.90;25.30
20610;DHT22;10463;52.378;9.688;2024-03-02T15:06:44;25.90;24.80
20610;DHT22;10463;52.378;9.688;2024-03-02T15:09:29;26.00;24.80
20610;DHT22;10463;52.378;9.688;2024-03-02T15:12:13;26.00;24.80
20610;DHT22;10463;52.378;9.688;2024-03-02T15:14:58;26.10;24.70
20610;DHT22;10463;52.378;9.688;2024-03-02T15:17:43;26.10;24.60
20610;DHT22;10463;52.378;9.688;2024-03-02T15:20:28;26.10;24.50
20610;DHT22;10463;52.378;9.688;2024-03-02T15:23:14;26.20;24.50
20610;DHT22;10463;52.378;9.688;2024-03-02T15:25:59;26.20;24.40
20610;DHT22;10463;52.378;9.688;2024-03-02T15:28:44;26.20;24.40
20610;DHT22;10463;52.378;9.688;2024-03-02T15:31:29;26.30;24.40
20610;DHT22;10463;52.378;9.688;2024-03-02T15:34:13;26.30;24.30
20610;DHT22;10463;52.378;9.688;2024-03-02T15:36:58;26.40;24.20
20610;DHT22;10463;52.378;9.688;2024-03-02T15:39:44;26.40;24.20
20610;DHT22;10463;52.378;9.688;2024-03-02T15:42:28;26.40;24.10
20610;DHT22;10463;52.378;9.688;2024-03-02T15:45:13;26.40;24.10
20610;DHT22;10463;52.378;9.688;2024-03-02T15:47:58;26.50;24.10
20610;DHT22;10463;52.378;9.688;2024-03-02T15:50:42;26.50;24.00
20610;DHT22;10463;52.378;9.688;2024-03-02T15:53:27;26.50;24.00
20610;DHT22;10463;52.378;9.688;2024-03-02T15:56:13;26.50;24.00
20610;DHT22;10463;52.378;9.688;2024-03-02T15:58:58;26.50;23.90
20610;DHT22;10463;52.378;9.688;2024-03-02T16:01:42;26.50;23.90
20610;DHT22;10463;52.378;9.688;2024-03-02T16:04:27;26.50;23.90
20610;DHT22;10463;52.378;9.688;2024-03-02T16:07:12;26.50;23.90
20610;DHT22;10463;52.378;9.688;2024-03-02T16:09:57;26.50;23.90
20610;DHT22;10463;52.378;9.688;2024-03-02T16:12:42;26.50;23.90
20610;DHT22;10463;52.378;9.688;2024-03-02T16:15:27;26.50;23.90
20610;DHT22;10463;52.378;9.688;2024-03-02T16:18:12;26.50;23.90
20610;DHT22;10463;52.378;9.688;2024-03-02T16:20:57;26.50;23.90
20610;DHT22;10463;52.378;9.688;2024-03-02T16:23:42;26.50;23.90
20610;DHT22;10463;52.378;9.688;2024-03-02T16:26:26;26.40;23.90
20610;DHT22;10463;52.378;9.688;2024-03-02T16:29:12;26.40;23.90
20610;DHT22;10463;52.378;9.688;2024-03-02T16:31:58;26.40;23.90
20610;DHT22;10463;52.378;9.688;2024-03-02T16:34:44;26.40;24.00
20610;DHT22;10463;52.378;9.688;2024-03-02T16:37:29;26.30;23.90
20610;DHT22;10463;52.378;9.688;2024-03-02T16:40:14;26.30;23.90
20610;DHT22;10463;52.378;9.688;2024-03-02T16:42:58;26.30;24.00
20610;DHT22;10463;52.378;9.688;2024-03-02T16:45:44;26.30;24.00
20610;DHT22;10463;52.378;9.688;2024-03-02T16:48:29;26.30;24.00
20610;DHT22;10463;52.378;9.688;2024-03-02T16:51:13;26.20;24.00
20610;DHT22;10463;52.378;9.688;2024-03-02T16:53:58;26.20;24.00
20610;DHT22;10463;52.378;9.688;2024-03-02T16:56:44;26.20;24.50
20610;DHT22;10463;52.378;9.688;2024-03-02T16:59:29;26.20;24.00
20610;DHT22;10463;52.378;9.688;2024-03-02T17:02:15;26.10;24.00
20610;DHT22;10463;52.378;9.688;2024-03-02T17:05:00;26.10;24.00
20610;DHT22;10463;52.378;9.688;2024-03-02T17:07:44;26.10;24.00
20610;DHT22;10463;52.378;9.688;2024-03-02T17:10:29;26.10;24.10
20610;DHT22;10463;52.378;9.688;2024-03-02T17:13:13;26.10;24.00
20610;DHT22;10463;52.378;9.688;2024-03-02T17:15:58;26.00;24.00
20610;DHT22;10463;52.378;9.688;2024-03-02T17:18:44;26.00;24.10
20610;DHT22;10463;52.378;9.688;2024-03-02T17:21:28;26.00;24.20
20610;DHT22;10463;52.378;9.688;2024-03-02T17:24:13;26.00;24.20
20610;DHT22;10463;52.378;9.688;2024-03-02T17:26:58;26.00;24.20